createdAt,value
2022-09-25T00:01:51.512Z,9.13
2022-09-25T00:04:53.446Z,8.05
2022-09-25T00:07:56.343Z,8.38
2022-09-25T00:10:58.309Z,7.57
2022-09-25T00:14:01.341Z,7.68
2022-09-25T00:17:02.971Z,6.57
2022-09-25T00:20:04.874Z,6.00
2022-09-25T00:23:06.985Z,5.82
2022-09-25T00:26:09.039Z,6.03
2022-09-25T00:29:19.287Z,5.90
2022-09-25T00:32:20.834Z,5.63
2022-09-25T00:35:22.485Z,5.85
2022-09-25T00:38:24.174Z,6.55
2022-09-25T00:41:27.162Z,6.43
2022-09-25T00:44:52.298Z,6.45
2022-09-25T00:47:59.442Z,8.35
2022-09-25T00:51:01.862Z,8.45
2022-09-25T00:54:06.545Z,7.72
2022-09-25T00:57:13.654Z,8.85
2022-09-25T01:00:16.074Z,7.70
2022-09-25T01:03:18.840Z,7.82
2022-09-25T01:06:20.647Z,7.60
2022-09-25T01:09:22.908Z,7.30
2022-09-25T01:12:24.728Z,6.35
2022-09-25T01:15:49.143Z,7.43
2022-09-25T01:19:25.100Z,6.65
2022-09-25T01:22:47.013Z,6.45
2022-09-25T01:25:56.354Z,6.28
2022-09-25T01:29:16.308Z,6.47
2022-09-25T01:32:32.286Z,5.93
2022-09-25T01:35:45.384Z,6.28
2022-09-25T01:39:03.193Z,6.18
2022-09-25T01:42:26.853Z,5.43
2022-09-25T01:45:51.126Z,6.10
2022-09-25T01:49:26.877Z,6.00
2022-09-25T01:52:38.972Z,6.25
2022-09-25T01:55:45.973Z,6.30
2022-09-25T01:58:56.125Z,5.60
2022-09-25T02:02:01.132Z,4.80
2022-09-25T02:05:11.712Z,5.97
2022-09-25T02:08:31.063Z,5.70
2022-09-25T02:11:42.910Z,5.35
2022-09-25T02:14:57.827Z,5.55
2022-09-25T02:18:21.942Z,4.82
2022-09-25T02:21:37.293Z,5.07
2022-09-25T02:24:49.458Z,5.13
2022-09-25T02:27:51.148Z,4.40
2022-09-25T02:30:56.261Z,4.25
2022-09-25T02:33:58.678Z,4.35
2022-09-25T02:37:00.279Z,4.72
2022-09-25T02:40:04.190Z,4.40
2022-09-25T02:43:35.463Z,4.05
2022-09-25T02:46:49.608Z,4.75
2022-09-25T02:50:16.915Z,4.68
2022-09-25T02:53:41.864Z,4.65
2022-09-25T02:57:10.291Z,4.28
2022-09-25T03:00:14.474Z,4.47
2022-09-25T03:03:19.985Z,5.32
2022-09-25T03:06:23.744Z,4.78
2022-09-25T03:09:27.322Z,4.32
2022-09-25T03:12:36.324Z,4.50
2022-09-25T03:15:38.735Z,5.40
2022-09-25T03:18:45.464Z,4.47
2022-09-25T03:21:51.958Z,5.68
2022-09-25T03:24:55.298Z,5.50
2022-09-25T03:27:58.624Z,6.43
2022-09-25T03:31:14.798Z,6.13
2022-09-25T03:37:39.299Z,6.70
2022-09-25T03:40:42.136Z,5.82
2022-09-25T03:43:45.640Z,6.60
2022-09-25T03:54:38.373Z,6.20
2022-09-25T03:57:41.860Z,6.28
2022-09-25T04:00:48.261Z,6.53
2022-09-25T04:03:52.317Z,7.07
2022-09-25T04:06:55.581Z,6.57
2022-09-25T04:10:02.651Z,6.00
2022-09-25T04:13:06.693Z,5.70
2022-09-25T04:16:09.461Z,5.60
2022-09-25T04:19:12.354Z,6.05
2022-09-25T04:22:14.312Z,5.10
2022-09-25T04:25:23.614Z,5.40
2022-09-25T04:28:29.286Z,5.53
2022-09-25T04:31:32.536Z,5.18
2022-09-25T04:34:36.123Z,5.45
2022-09-25T04:45:17.426Z,4.47
2022-09-25T04:48:20.758Z,5.15
2022-09-25T04:51:22.724Z,5.38
2022-09-25T04:57:57.784Z,5.43
2022-09-25T05:01:09.493Z,6.10
2022-09-25T05:04:11.520Z,6.57
2022-09-25T05:07:13.882Z,6.20
2022-09-25T05:10:15.755Z,7.35
2022-09-25T05:13:18.879Z,6.82
2022-09-25T05:16:21.263Z,7.20
2022-09-25T05:19:23.168Z,7.40
2022-09-25T05:22:25.201Z,6.10
2022-09-25T05:25:27.252Z,6.80
2022-09-25T05:28:31.415Z,6.20
2022-09-25T05:31:33.247Z,5.68
2022-09-25T05:34:35.229Z,6.03
2022-09-25T05:37:37.098Z,5.93
2022-09-25T05:40:39.360Z,4.75
2022-09-25T05:43:47.637Z,5.35
2022-09-25T05:46:49.721Z,5.22
2022-09-25T05:49:51.352Z,5.15
2022-09-25T05:52:57.431Z,4.63
2022-09-25T05:56:01.243Z,4.93
2022-09-25T05:59:02.973Z,4.82
2022-09-25T06:02:04.712Z,5.00
2022-09-25T06:05:07.149Z,6.05
2022-09-25T06:08:09.185Z,5.65
2022-09-25T06:11:11.501Z,5.15
2022-09-25T06:14:16.661Z,5.00
2022-09-25T06:17:18.505Z,5.20
2022-09-25T06:20:21.850Z,5.35
2022-09-25T06:23:23.446Z,5.15
2022-09-25T06:26:25.837Z,5.88
2022-09-25T06:29:27.505Z,5.85
2022-09-25T06:32:29.194Z,5.20
2022-09-25T06:35:30.983Z,5.72
2022-09-25T06:38:34.315Z,5.15
2022-09-25T06:41:36.829Z,5.40
2022-09-25T06:44:38.733Z,5.45
2022-09-25T06:47:40.598Z,5.55
2022-09-25T06:50:55.083Z,5.47
2022-09-25T06:53:56.999Z,4.85
2022-09-25T06:56:58.636Z,5.80
2022-09-25T07:00:00.313Z,4.85
2022-09-25T07:03:20.888Z,5.05
2022-09-25T07:06:26.442Z,5.07
2022-09-25T07:09:28.267Z,5.20
2022-09-25T07:12:30.011Z,7.47
2022-09-25T07:15:31.770Z,5.40
2022-09-25T07:18:34.460Z,4.55
2022-09-25T07:21:36.198Z,5.60
2022-09-25T07:24:38.103Z,5.13
2022-09-25T07:27:40.140Z,5.03
2022-09-25T07:30:44.938Z,5.28
2022-09-25T07:33:47.515Z,4.40
2022-09-25T07:36:52.732Z,6.80
2022-09-25T07:39:54.548Z,4.25
2022-09-25T07:43:00.295Z,4.75
2022-09-25T07:46:04.769Z,4.20
2022-09-25T07:49:06.391Z,4.88
2022-09-25T07:52:08.086Z,4.22
2022-09-25T07:55:09.856Z,4.55
2022-09-25T07:58:11.976Z,4.32
2022-09-25T08:01:13.648Z,4.30
2022-09-25T08:04:15.355Z,4.07
2022-09-25T08:07:17.169Z,4.18
2022-09-25T08:10:19.132Z,3.88
2022-09-25T08:13:21.376Z,3.88
2022-09-25T08:16:23.374Z,3.47
2022-09-25T08:19:25.232Z,3.65
2022-09-25T08:22:27.003Z,3.80
2022-09-25T08:25:28.638Z,3.70
2022-09-25T08:28:30.295Z,2.85
2022-09-25T08:31:32.007Z,3.53
2022-09-25T08:34:41.183Z,3.28
2022-09-25T08:37:44.924Z,4.55
2022-09-25T08:40:55.003Z,3.28
2022-09-25T08:44:09.104Z,3.17
2022-09-25T08:47:37.295Z,3.05
2022-09-25T08:50:39.330Z,2.70
2022-09-25T08:53:43.637Z,2.42
2022-09-25T08:56:48.785Z,2.63
2022-09-25T08:59:59.792Z,2.60
2022-09-25T09:03:04.416Z,2.55
2022-09-25T09:06:12.052Z,1.98
2022-09-25T09:09:22.037Z,2.03
2022-09-25T09:12:45.844Z,2.20
2022-09-25T09:16:02.972Z,2.40
2022-09-25T09:19:06.555Z,2.70
2022-09-25T09:22:13.178Z,1.77
2022-09-25T09:25:35.784Z,2.60
2022-09-25T09:28:56.748Z,2.13
2022-09-25T09:32:16.699Z,2.10
2022-09-25T09:36:05.336Z,1.98
2022-09-25T09:39:23.297Z,2.28
2022-09-25T09:42:38.328Z,1.85
2022-09-25T09:45:53.494Z,1.70
2022-09-25T09:49:19.485Z,2.25
2022-09-25T09:52:25.340Z,1.48
2022-09-25T09:55:53.082Z,1.83
2022-09-25T09:58:58.180Z,2.08
2022-09-25T10:02:13.697Z,2.10
2022-09-25T10:05:30.205Z,2.30
2022-09-25T10:08:31.889Z,2.08
2022-09-25T10:11:34.515Z,2.70
2022-09-25T10:14:43.880Z,2.03
2022-09-25T10:17:46.606Z,2.30
2022-09-25T10:21:03.987Z,2.03
2022-09-25T10:24:10.827Z,2.33
2022-09-25T10:28:03.681Z,1.63
2022-09-25T10:39:46.059Z,1.80
2022-09-25T10:46:53.612Z,1.80
2022-09-25T10:50:16.928Z,1.75
2022-09-25T10:53:35.931Z,1.48
2022-09-25T10:56:54.685Z,1.52
2022-09-25T10:59:59.373Z,1.35
2022-09-25T11:03:08.810Z,1.40
2022-09-25T11:06:22.341Z,1.30
2022-09-25T11:09:27.003Z,1.80
2022-09-25T11:12:36.735Z,1.48
2022-09-25T11:15:38.922Z,1.93
2022-09-25T11:18:46.663Z,1.67
2022-09-25T11:21:59.792Z,1.60
2022-09-25T11:25:21.122Z,2.03
2022-09-25T11:28:34.922Z,1.85
2022-09-25T11:31:42.794Z,1.80
2022-09-25T11:35:17.678Z,1.88
2022-09-25T11:38:58.717Z,1.60
2022-09-25T11:42:09.453Z,1.30
2022-09-25T11:45:24.209Z,1.35
2022-09-25T11:48:50.649Z,1.58
2022-09-25T11:52:13.924Z,2.00
2022-09-25T11:55:42.824Z,1.20
2022-09-25T11:58:57.456Z,1.33
2022-09-25T12:02:21.526Z,1.33
2022-09-25T12:05:23.092Z,1.20
2022-09-25T12:08:48.918Z,0.95
2022-09-25T12:12:05.923Z,1.40
2022-09-25T12:15:17.748Z,1.75
2022-09-25T12:18:31.826Z,1.80
2022-09-25T12:21:53.323Z,1.20
2022-09-25T12:25:12.972Z,1.35
2022-09-25T12:28:40.774Z,1.33
2022-09-25T12:32:10.057Z,18.05
2022-09-25T12:35:29.626Z,2.17
2022-09-25T12:38:44.457Z,1.45
2022-09-25T12:41:53.121Z,1.95
2022-09-25T12:45:11.204Z,2.72
2022-09-25T12:48:24.047Z,1.40
2022-09-25T12:51:42.993Z,1.20
2022-09-25T12:55:00.333Z,1.65
2022-09-25T12:58:21.175Z,1.15
2022-09-25T13:01:40.665Z,1.10
2022-09-25T13:04:57.702Z,1.10
2022-09-25T13:08:23.557Z,1.38
2022-09-25T13:11:50.829Z,1.30
2022-09-25T13:15:15.137Z,1.23
2022-09-25T13:18:20.343Z,1.88
2022-09-25T13:21:31.062Z,1.42
2022-09-25T13:24:45.226Z,0.95
2022-09-25T13:27:47.085Z,2.15
2022-09-25T13:31:09.243Z,1.08
2022-09-25T13:34:14.715Z,1.10
2022-09-25T13:37:16.456Z,0.90
2022-09-25T13:40:39.949Z,1.20
2022-09-25T13:43:42.787Z,1.02
2022-09-25T13:48:31.049Z,0.98
2022-09-25T13:54:33.878Z,1.27
2022-09-25T13:57:57.241Z,1.35
2022-09-25T14:01:04.126Z,2.97
2022-09-25T14:04:34.106Z,1.17
2022-09-25T14:07:37.286Z,1.00
2022-09-25T14:10:46.928Z,1.30
2022-09-25T14:13:51.996Z,3.37
2022-09-25T14:16:58.402Z,1.27
2022-09-25T14:20:04.718Z,1.15
2022-09-25T14:23:16.363Z,2.72
2022-09-25T14:26:21.531Z,2.08
2022-09-25T14:29:25.607Z,13.88
2022-09-25T14:32:55.745Z,1.88
2022-09-25T14:36:24.305Z,1.25
2022-09-25T14:39:31.686Z,1.63
2022-09-25T14:42:52.931Z,1.67
2022-09-25T14:46:13.018Z,1.27
2022-09-25T14:49:39.191Z,1.02
2022-09-25T14:52:42.448Z,1.02
2022-09-25T14:55:48.994Z,1.15
2022-09-25T14:58:57.761Z,1.10
2022-09-25T15:02:02.742Z,1.25
2022-09-25T15:05:32.860Z,1.30
2022-09-25T15:08:43.537Z,1.35
2022-09-25T15:15:09.969Z,1.20
2022-09-25T15:18:14.083Z,1.38
2022-09-25T15:21:25.793Z,1.08
2022-09-25T15:24:34.569Z,1.10
2022-09-25T15:27:42.418Z,1.17
2022-09-25T15:30:46.317Z,1.23
2022-09-25T15:34:27.273Z,1.38
2022-09-25T15:37:29.579Z,1.40
2022-09-25T15:40:31.738Z,1.42
2022-09-25T15:43:33.853Z,0.77
2022-09-25T15:46:47.216Z,1.10
2022-09-25T15:49:49.044Z,1.35
2022-09-25T15:52:57.479Z,1.20
2022-09-25T15:56:16.715Z,1.20
2022-09-25T16:00:04.497Z,1.30
2022-09-25T16:03:34.212Z,1.05
2022-09-25T16:06:42.643Z,1.30
2022-09-25T16:09:46.929Z,1.25
2022-09-25T16:12:49.797Z,1.42
2022-09-25T16:15:52.992Z,1.58
2022-09-25T16:18:57.065Z,1.40
2022-09-25T16:22:03.215Z,1.50
2022-09-25T16:25:17.079Z,2.30
2022-09-25T16:28:22.889Z,1.65
2022-09-25T16:31:25.196Z,1.10
2022-09-25T16:34:30.608Z,1.20
2022-09-25T16:37:36.237Z,1.60
2022-09-25T16:40:38.601Z,1.40
2022-09-25T16:43:40.951Z,1.45
2022-09-25T16:47:02.994Z,1.70
2022-09-25T16:50:04.822Z,1.90
2022-09-25T16:53:06.942Z,1.27
2022-09-25T16:56:08.656Z,1.20
2022-09-25T16:59:22.093Z,1.40
2022-09-25T17:02:32.594Z,1.92
2022-09-25T17:08:37.623Z,2.42
2022-09-25T17:11:40.981Z,1.92
2022-09-25T17:14:42.805Z,2.20
2022-09-25T17:17:44.404Z,2.28
2022-09-25T17:20:46.828Z,2.40
2022-09-25T17:23:48.505Z,2.30
2022-09-25T17:26:51.848Z,2.20
2022-09-25T17:30:30.037Z,2.35
2022-09-25T17:33:32.605Z,2.60
2022-09-25T17:36:34.250Z,2.63
2022-09-25T17:39:45.460Z,2.10
2022-09-25T17:42:47.269Z,2.15
2022-09-25T17:45:52.064Z,2.30
2022-09-25T17:48:54.892Z,2.30
2022-09-25T17:51:56.727Z,2.30
2022-09-25T17:54:58.306Z,2.45
2022-09-25T17:57:59.927Z,2.40
2022-09-25T18:01:06.386Z,1.83
2022-09-25T18:04:22.679Z,1.80
2022-09-25T18:07:27.679Z,2.10
2022-09-25T18:10:47.313Z,2.78
2022-09-25T18:35:16.740Z,3.53
2022-09-25T18:38:57.513Z,3.25
2022-09-25T18:43:12.139Z,3.25
2022-09-25T18:46:50.721Z,3.75
2022-09-25T18:55:40.885Z,3.58
2022-09-25T18:58:43.999Z,3.38
2022-09-25T19:02:11.856Z,3.47
2022-09-25T19:13:03.757Z,4.45
2022-09-25T19:16:49.986Z,4.30
2022-09-25T19:19:59.837Z,5.53
2022-09-25T19:26:46.422Z,5.90
2022-09-25T19:34:49.697Z,5.43
2022-09-25T19:51:13.785Z,5.72
2022-09-25T20:11:48.275Z,5.47
2022-09-25T20:19:37.636Z,5.30
2022-09-25T20:35:06.129Z,4.82
2022-09-25T20:52:47.270Z,5.05
2022-09-25T20:55:55.251Z,4.60
2022-09-25T20:59:39.138Z,5.47
2022-09-25T21:03:09.762Z,5.30
2022-09-25T21:13:51.978Z,4.50
2022-09-25T21:16:56.296Z,5.28
2022-09-25T21:19:57.978Z,4.60
2022-09-25T21:23:02.508Z,4.65
2022-09-25T21:26:13.583Z,4.00
2022-09-25T21:29:18.004Z,4.07
2022-09-25T21:32:19.552Z,4.50
2022-09-25T21:35:21.173Z,3.95
2022-09-25T21:38:22.740Z,4.05
2022-09-25T21:41:26.575Z,3.83
2022-09-25T21:44:28.158Z,3.97
2022-09-25T21:47:29.695Z,4.13
2022-09-25T21:50:31.264Z,4.05
2022-09-25T21:53:33.899Z,3.97
2022-09-25T21:56:36.167Z,3.88
2022-09-25T21:59:37.841Z,3.92
2022-09-25T22:02:40.265Z,3.55
2022-09-25T22:05:42.283Z,3.47
2022-09-25T22:08:46.569Z,3.63
2022-09-25T22:11:49.283Z,3.83
2022-09-25T22:14:51.682Z,4.00
2022-09-25T22:17:53.235Z,3.03
2022-09-25T22:20:55.307Z,3.45
2022-09-25T22:23:57.795Z,4.10
2022-09-25T22:26:59.366Z,3.30
2022-09-25T22:30:00.879Z,3.30
2022-09-25T22:33:02.424Z,3.28
2022-09-25T22:36:06.546Z,3.30
2022-09-25T22:39:08.162Z,3.45
2022-09-25T22:42:09.864Z,3.53
2022-09-25T22:45:11.518Z,2.88
2022-09-25T22:48:13.094Z,3.72
2022-09-25T22:51:17.770Z,4.07
2022-09-25T22:54:19.641Z,3.72
2022-09-25T22:57:21.206Z,3.53
2022-09-25T23:00:22.723Z,3.47
2022-09-25T23:03:24.859Z,3.53
2022-09-25T23:06:28.395Z,3.53
2022-09-25T23:09:30.006Z,2.80
2022-09-25T23:12:31.569Z,3.45
2022-09-25T23:15:36.875Z,3.40
2022-09-25T23:18:38.408Z,3.78
2022-09-25T23:21:40.298Z,3.40
2022-09-25T23:24:41.880Z,3.63
2022-09-25T23:27:43.983Z,3.60
2022-09-25T23:30:45.675Z,3.53
2022-09-25T23:33:47.938Z,3.78
2022-09-25T23:36:49.508Z,3.60
2022-09-25T23:39:51.291Z,3.55
2022-09-25T23:42:54.406Z,3.33
2022-09-25T23:45:55.982Z,3.42
2022-09-25T23:48:58.959Z,4.00
2022-09-25T23:52:00.636Z,3.95
2022-09-25T23:55:02.282Z,3.90
2022-09-25T23:58:03.832Z,3.80
